Weather History for Glenwood, MN

Change the Weather History Date:

Tuesday, December 4, 2012

  Actual Average Record
Temperature  
Mean Temperature 24 °F -  
Max Temperature 33 °F 29 °F 54 °F (1962)
Min Temperature 14 °F 11 °F -14 °F (1972)
Degree Days  
Heating Degree Days 42    
Moisture  
Dew Point 13 °F    
Average Humidity 72    
Maximum Humidity 86    
Minimum Humidity 51    
Precipitation  
Precipitation 0.00 in - - ()
Sea Level Pressure  
Sea Level Pressure 30.18 in    
Wind  
Wind Speed 12 mph (NW)    
Max Wind Speed 17 mph    
Max Gust Speed 23 mph    
Visibility 10 miles    
Events      
Averages and records for this station are not official NWS values.
T = Trace of Precipitation, MM = Missing Value Source: NWS Daily Summary

Daily Weather History Graph

Daily Weather History Graph

Search for Another Location

Airport:

Trip Planner

Search our weather history database for the weather conditions in past years. The results will help you decide how hot, cold, wet, or windy it might be!

Date:

Astronomy

Dec. 04, 2012 Rise Set
Actual Time 7:45 AM CST 4:37 PM CST
Civil Twilight 7:11 AM CST 5:11 PM CST
Nautical Twilight 6:34 AM CST 5:49 PM CST
Astronomical Twilight 5:58 AM CST 6:24 PM CST
Moon 10:38 PM CST (12/4) 11:29 AM CST (12/4)
Length of Visible Light 10h 00m
Length of Day
8h 52m
Waning Gibbous, 69% of the Moon is Illuminated
Dec 4
Waning Gibbous
Dec 6
Last Quarter
Dec 13
New
Dec 19
First Quarter
Dec 28
Full

Hourly Weather History & Observations

Time (CST) Temp. Windchill Dew Point Humidity Pressure Visibility Wind Dir Wind Speed Gust Speed Precip Events Conditions
12:13 AM 33.8 °F 24.8 °F 24.8 °F 70% 29.93 in 10.0 mi West 12.7 mph - N/A   Clear
12:33 AM 32.0 °F 21.2 °F 24.8 °F 75% 29.94 in 10.0 mi West 16.1 mph 23.0 mph N/A   Clear
12:54 AM 30.2 °F 20.2 °F 24.8 °F 80% 29.94 in 10.0 mi WNW 12.7 mph - N/A   Clear
1:13 AM 28.4 °F 16.6 °F 24.8 °F 86% 29.95 in 10.0 mi West 16.1 mph - N/A   Clear
1:33 AM 28.4 °F 18.0 °F 21.2 °F 74% 29.95 in 10.0 mi WNW 12.7 mph - N/A   Clear
1:54 AM 26.6 °F 15.7 °F 21.2 °F 80% 29.97 in 10.0 mi WNW 12.7 mph 17.3 mph N/A   Clear
2:13 AM 26.6 °F 18.2 °F 21.2 °F 80% 29.97 in 10.0 mi WNW 8.1 mph - N/A   Clear
2:33 AM 26.6 °F 16.8 °F 19.4 °F 74% 29.99 in 10.0 mi West 10.4 mph - N/A   Clear
2:54 AM 26.6 °F 15.7 °F 17.6 °F 69% 29.99 in 10.0 mi West 12.7 mph - N/A   Clear
3:13 AM 26.6 °F 15.2 °F 17.6 °F 69% 29.99 in 10.0 mi West 13.8 mph 21.9 mph N/A   Clear
3:33 AM 24.8 °F 12.9 °F 15.8 °F 69% 30.00 in 10.0 mi West 13.8 mph 21.9 mph N/A   Clear
3:54 AM 24.8 °F 11.9 °F 15.8 °F 69% 30.01 in 10.0 mi West 16.1 mph 21.9 mph N/A   Clear
4:13 AM 23.0 °F 10.1 °F 15.8 °F 74% 30.01 in 10.0 mi West 15.0 mph 20.7 mph N/A   Clear
4:33 AM 23.0 °F 11.1 °F 15.8 °F 74% 30.02 in 10.0 mi West 12.7 mph - N/A   Clear
4:54 AM 21.2 °F 8.3 °F 15.8 °F 80% 30.02 in 10.0 mi West 13.8 mph 19.6 mph N/A   Clear
5:13 AM 21.2 °F 7.8 °F 15.8 °F 80% 30.03 in 10.0 mi West 15.0 mph - N/A   Clear
5:33 AM 21.2 °F 6.8 °F 15.8 °F 80% 30.03 in 10.0 mi WNW 17.3 mph 20.7 mph N/A   Clear
5:54 AM 21.2 °F 6.8 °F 15.8 °F 80% 30.04 in 10.0 mi WNW 17.3 mph - N/A   Clear
6:13 AM 19.4 °F 5.5 °F 15.8 °F 86% 30.06 in 10.0 mi WNW 15.0 mph - N/A   Clear
6:33 AM 19.4 °F 6.6 °F 15.8 °F 86% 30.07 in 10.0 mi West 12.7 mph - N/A   Clear
6:54 AM 19.4 °F 6.0 °F 14.0 °F 80% 30.08 in 10.0 mi WNW 13.8 mph - N/A   Clear
7:13 AM 17.6 °F 3.2 °F 14.0 °F 86% 30.09 in 10.0 mi WNW 15.0 mph - N/A   Clear
7:54 AM 17.6 °F 4.3 °F 12.2 °F 79% 30.12 in 10.0 mi WNW 12.7 mph 17.3 mph N/A   Clear
8:13 AM 17.6 °F 2.7 °F 12.2 °F 79% 30.13 in 10.0 mi WNW 16.1 mph - N/A   Clear
8:34 AM 17.6 °F 2.7 °F 12.2 °F 79% 30.14 in 10.0 mi WNW 16.1 mph - N/A   Clear
8:54 AM 19.4 °F 5.0 °F 12.2 °F 74% 30.15 in 10.0 mi WNW 16.1 mph - N/A   Clear
9:13 AM 19.4 °F 5.5 °F 12.2 °F 74% 30.17 in 10.0 mi WNW 15.0 mph - N/A   Clear
9:34 AM 19.4 °F 5.5 °F 12.2 °F 74% 30.17 in 10.0 mi WNW 15.0 mph 19.6 mph N/A   Clear
9:54 AM 21.2 °F 8.3 °F 12.2 °F 68% 30.18 in 10.0 mi NW 13.8 mph - N/A   Clear
10:13 AM 21.2 °F 7.8 °F 12.2 °F 68% 30.19 in 10.0 mi WNW 15.0 mph - N/A   Clear
10:34 AM 21.2 °F 7.8 °F 12.2 °F 68% 30.21 in 10.0 mi WNW 15.0 mph - N/A   Clear
10:54 AM 23.0 °F 9.6 °F 12.2 °F 63% 30.21 in 10.0 mi WNW 16.1 mph - N/A   Clear
11:13 AM 23.0 °F 10.6 °F 12.2 °F 63% 30.21 in 10.0 mi NW 13.8 mph 20.7 mph N/A   Clear
11:34 AM 23.0 °F 10.6 °F 12.2 °F 63% 30.22 in 10.0 mi NW 13.8 mph 18.4 mph N/A   Clear
11:53 AM 24.8 °F 13.4 °F 12.2 °F 59% 30.22 in 10.0 mi NW 12.7 mph - N/A   Clear
12:13 PM 24.8 °F 13.4 °F 12.2 °F 59% 30.22 in 10.0 mi NW 12.7 mph 17.3 mph N/A   Clear
12:34 PM 24.8 °F 12.4 °F 12.2 °F 59% 30.22 in 10.0 mi NW 15.0 mph - N/A   Clear
12:53 PM 24.8 °F 14.0 °F 12.2 °F 59% 30.23 in 10.0 mi WNW 11.5 mph 18.4 mph N/A   Clear
1:13 PM 24.8 °F 13.4 °F 10.4 °F 54% 30.23 in 10.0 mi NW 12.7 mph 18.4 mph N/A   Clear
1:34 PM 24.8 °F 14.0 °F 10.4 °F 54% 30.23 in 10.0 mi NW 11.5 mph 17.3 mph N/A   Clear
1:53 PM 24.8 °F 13.4 °F 10.4 °F 54% 30.23 in 10.0 mi WNW 12.7 mph - N/A   Clear
2:13 PM 26.6 °F 16.2 °F 10.4 °F 51% 30.24 in 10.0 mi NW 11.5 mph 18.4 mph N/A   Clear
2:34 PM 26.6 °F 17.5 °F 10.4 °F 51% 30.24 in 10.0 mi WNW 9.2 mph 17.3 mph N/A   Clear
2:53 PM 26.6 °F 18.2 °F 10.4 °F 51% 30.25 in 10.0 mi WNW 8.1 mph - N/A   Clear
3:14 PM 24.8 °F 14.6 °F 10.4 °F 54% 30.26 in 10.0 mi WNW 10.4 mph - N/A   Clear
3:34 PM 24.8 °F 15.3 °F 10.4 °F 54% 30.27 in 10.0 mi NW 9.2 mph - N/A   Clear
3:53 PM 24.8 °F 15.3 °F 10.4 °F 54% 30.27 in 10.0 mi NW 9.2 mph - N/A   Clear
4:14 PM 23.0 °F 13.9 °F 12.2 °F 63% 30.27 in 10.0 mi NW 8.1 mph - N/A   Clear
4:53 PM 21.2 °F 13.6 °F 12.2 °F 68% 30.28 in 10.0 mi NW 5.8 mph - N/A   Clear
5:13 PM 19.4 °F 14.3 °F 12.2 °F 74% 30.29 in 10.0 mi West 3.5 mph - N/A   Clear
5:33 PM 17.6 °F 10.7 °F 12.2 °F 79% 30.29 in 10.0 mi WNW 4.6 mph - N/A   Clear
5:53 PM 17.6 °F 9.3 °F 10.4 °F 73% 30.29 in 10.0 mi WNW 5.8 mph - N/A   Clear
6:14 PM 17.6 °F - 10.4 °F 73% 30.29 in 10.0 mi Calm Calm - N/A   Clear
6:33 PM 15.8 °F 10.2 °F 10.4 °F 79% 30.29 in 10.0 mi NW 3.5 mph - N/A   Clear
6:53 PM 17.6 °F - 12.2 °F 79% 30.30 in 10.0 mi Calm Calm - N/A   Clear
7:14 PM 17.6 °F - 12.2 °F 79% 30.30 in 10.0 mi Calm Calm - N/A   Clear
7:33 PM 17.6 °F 12.3 °F 12.2 °F 79% 30.31 in 10.0 mi North 3.5 mph - N/A   Clear
7:53 PM 17.6 °F 12.3 °F 10.4 °F 73% 30.32 in 10.0 mi North 3.5 mph - N/A   Clear
8:14 PM 17.6 °F 9.3 °F 10.4 °F 73% 30.32 in 10.0 mi NNE 5.8 mph - N/A   Clear
8:33 PM 15.8 °F 8.6 °F 10.4 °F 79% 30.33 in 10.0 mi North 4.6 mph - N/A   Clear
8:53 PM 15.8 °F 8.6 °F 10.4 °F 79% 30.33 in 10.0 mi NE 4.6 mph - N/A   Clear
9:14 PM 15.8 °F 10.2 °F 10.4 °F 79% 30.34 in 10.0 mi NE 3.5 mph - N/A   Clear
9:33 PM 15.8 °F 10.2 °F 10.4 °F 79% 30.35 in 10.0 mi North 3.5 mph - N/A   Clear
9:53 PM 15.8 °F - 10.4 °F 79% 30.36 in 10.0 mi Calm Calm - N/A   Clear
10:14 PM 15.8 °F 10.2 °F 10.4 °F 79% 30.36 in 10.0 mi North 3.5 mph - N/A   Clear
10:33 PM 15.8 °F 8.6 °F 10.4 °F 79% 30.36 in 10.0 mi NNE 4.6 mph - N/A   Clear
10:53 PM 15.8 °F 6.1 °F 10.4 °F 79% 30.35 in 10.0 mi NNE 6.9 mph - N/A   Clear
11:14 PM 15.8 °F 7.2 °F 10.4 °F 79% 30.34 in 10.0 mi NE 5.8 mph - N/A   Clear
11:33 PM 14.0 °F 5.1 °F 10.4 °F 86% 30.35 in 10.0 mi NE 5.8 mph - N/A   Clear
11:53 PM 14.0 °F 6.5 °F 10.4 °F 86% 30.35 in 10.0 mi NE 4.6 mph - N/A   Clear